»·PEaware :: N369LH KCMA-KONT

N369LH :: KCMA-KONT

FLIGHT INFORMATION

Flight Status: Arrived
Operator: Privately registered:
United States
More flights under this callsign
Pilot: Anonymous 17480 (17480)
Aircraft: PILATUS PC-12 EAGLE
(PC12)
More flights by this aircraft type
Origin: KCMA Camarillo
United States
Destination: KONT Ontario Intl
United States
More flights between these airports :: More routes between these airports
Route: VTU044R GINNA V326 VNY V186 PDZ
File this flight plan on PilotEdge
Remarks:
Altitude:
(Current/Filed)
5,000ft
Speed:
(Current/Filed)
240kts
Departed: 06-Dec-18 09:27 PM
Arrived: 06-Dec-18 10:03 PM
Distance/Time
Traveled:
74nm/0:36
Distance/Time
To Go:
Arrived

Flight Plot

Page will automatically refresh every two minutes.


Map Options




Map Legend


Flown Route
Filed Route
Departure Airport
Arrival Airport
Navaid (VOR, NDB)
Fix

Horizontal Profiles

Position Reports

Time Latitude Longitude Heading Altitude Ground
Speed
06-Dec-18 21:11 34.210076 -119.077128 90 77ft 0kts
06-Dec-18 21:12 34.210076 -119.077128 90 77ft 0kts
06-Dec-18 21:13 34.210076 -119.077128 90 77ft 0kts
06-Dec-18 21:14 34.210076 -119.077128 90 77ft 0kts
06-Dec-18 21:15 34.210076 -119.077128 90 77ft 0kts
06-Dec-18 21:16 34.210076 -119.077128 90 77ft 0kts
06-Dec-18 21:17 34.210076 -119.077128 90 77ft 0kts
06-Dec-18 21:18 34.210076 -119.077128 90 77ft 0kts
06-Dec-18 21:19 34.210076 -119.077128 90 77ft 0kts
06-Dec-18 21:20 34.210076 -119.077128 90 77ft 0kts
06-Dec-18 21:21 34.210771 -119.077710 307 77ft 10kts
06-Dec-18 21:22 34.210942 -119.085707 269 77ft 28kts
06-Dec-18 21:23 34.211032 -119.097111 271 78ft 32kts
06-Dec-18 21:24 34.213009 -119.104096 350 77ft 0kts
06-Dec-18 21:25 34.213458 -119.104091 2 77ft 13kts
06-Dec-18 21:26 34.213951 -119.080843 105 844ft 121kts
06-Dec-18 21:27 34.183753 -119.091532 241 2825ft 172kts
06-Dec-18 21:28 34.160758 -119.144449 242 4742ft 182kts
06-Dec-18 21:29 34.149789 -119.207708 318 5013ft 228kts
06-Dec-18 21:30 34.188242 -119.176926 79 5005ft 227kts
06-Dec-18 21:31 34.196532 -119.100764 81 5002ft 230kts
06-Dec-18 21:32 34.204098 -119.024164 81 5002ft 231kts
06-Dec-18 21:33 34.211575 -118.947297 80 5002ft 232kts
06-Dec-18 21:34 34.219578 -118.869976 86 5000ft 231kts
06-Dec-18 21:35 34.222927 -118.795821 90 4990ft 228kts
06-Dec-18 21:36 34.223304 -118.726639 89 4990ft 227kts
06-Dec-18 21:37 34.223456 -118.650700 88 4989ft 228kts
06-Dec-18 21:38 34.223539 -118.572976 87 4992ft 242kts
06-Dec-18 21:39 34.223654 -118.497014 90 4990ft 249kts
06-Dec-18 21:40 34.203837 -118.427849 109 4990ft 250kts
06-Dec-18 21:41 34.180466 -118.353652 109 4990ft 248kts
06-Dec-18 21:42 34.158642 -118.284221 110 4988ft 246kts
06-Dec-18 21:43 34.136639 -118.214496 109 4981ft 242kts
06-Dec-18 21:44 34.113189 -118.140008 109 4970ft 236kts
06-Dec-18 21:45 34.091784 -118.072215 110 4958ft 233kts
06-Dec-18 21:46 34.068823 -118.000140 110 4966ft 230kts
06-Dec-18 21:47 34.045922 -117.928086 110 4975ft 230kts
06-Dec-18 21:48 34.027996 -117.855288 91 4983ft 229kts
06-Dec-18 21:49 34.026849 -117.788519 91 4987ft 226kts
06-Dec-18 21:50 34.025233 -117.712770 91 4986ft 227kts
06-Dec-18 21:51 34.023241 -117.636118 91 4994ft 231kts
06-Dec-18 21:52 34.020954 -117.560903 91 4516ft 216kts
06-Dec-18 21:53 34.018490 -117.491197 90 4002ft 214kts
06-Dec-18 21:54 34.015664 -117.416115 90 4001ft 228kts
06-Dec-18 21:55 34.012970 -117.340383 88 4000ft 227kts
06-Dec-18 21:56 34.050886 -117.310908 308 4012ft 217kts
06-Dec-18 21:57 34.053791 -117.382565 272 3992ft 197kts
06-Dec-18 21:58 34.054340 -117.438848 272 3522ft 157kts
06-Dec-18 21:59 34.054691 -117.492197 271 2444ft 132kts
06-Dec-18 22:00 34.054721 -117.534563 269 1819ft 122kts
06-Dec-18 22:01 34.054893 -117.570596 270 1179ft 92kts
06-Dec-18 22:02 34.054721 -117.593205 239 942ft 34kts
06-Dec-18 22:03 34.053851 -117.594984 264 942ft 7kts
06-Dec-18 22:04 34.053850 -117.605852 271 943ft 45kts
06-Dec-18 22:05 34.052080 -117.612061 73 942ft 14kts
06-Dec-18 22:06 34.052037 -117.611688 266 942ft 0kts

Navigation Log

Ident Type
Flight plan parsing failed, navigation log unavailable